Time;durP1;ratioP1;P1;durP2;ratioP2;P2;SDS_P1;SDS_P2;PMS_P1;PMS_P2;Temp;Humidity;BMP_temperature;BMP_pressure;BME280_temperature;BME280_humidity;BME280_pressure;Samples;Min_cycle;Max_cycle;Signal;HPM_P1;HPM_P2
2023/11/14 00:02:27;;;;;;;1.60;1.20;;;;;;;20.37;54.06;97255.10;104655;1272;62028;-54
2023/11/14 00:04:54;;;;;;;1.90;1.30;;;;;;;20.37;54.00;97248.18;104487;1268;61707;-53
2023/11/14 00:07:22;;;;;;;2.30;1.50;;;;;;;20.36;53.98;97245.70;104765;1272;74763;-54
2023/11/14 00:09:50;;;;;;;3.00;1.50;;;;;;;20.36;53.98;97254.55;104503;1273;65147;-55
2023/11/14 00:12:20;;;;;;;1.60;1.50;;;;;;;20.35;53.94;97247.15;104505;1267;72620;-54
2023/11/14 00:14:48;;;;;;;1.40;1.30;;;;;;;20.35;53.89;97244.35;104593;1271;61145;-53
2023/11/14 00:17:15;;;;;;;2.80;1.60;;;;;;;20.35;53.98;97253.98;104667;1266;61341;-52
2023/11/14 00:19:43;;;;;;;2.00;1.40;;;;;;;20.34;54.10;97243.41;104521;1273;74611;-53
2023/11/14 00:22:14;;;;;;;1.50;1.40;;;;;;;20.33;53.95;97233.15;104746;1273;64300;-53
2023/11/14 00:24:41;;;;;;;1.50;1.40;;;;;;;20.33;53.97;97232.38;104559;1273;72723;-53
2023/11/14 00:27:09;;;;;;;1.90;1.50;;;;;;;20.33;53.94;97226.54;104522;1273;61260;-53
2023/11/14 00:29:36;;;;;;;1.80;1.60;;;;;;;20.32;54.02;97224.13;104664;1267;61265;-53
2023/11/14 00:32:04;;;;;;;1.50;1.40;;;;;;;20.32;54.04;97219.07;104578;1273;74386;-53
2023/11/14 00:34:32;;;;;;;1.70;1.50;;;;;;;20.31;53.93;97210.83;104500;1267;65466;-53
2023/11/14 00:36:59;;;;;;;2.00;1.60;;;;;;;20.31;53.92;97203.36;104547;1268;72649;-53
2023/11/14 00:39:27;;;;;;;2.20;1.60;;;;;;;20.31;53.92;97188.68;104612;1272;61362;-53
2023/11/14 00:41:55;;;;;;;1.40;1.30;;;;;;;20.30;53.97;97178.02;104570;1267;61189;-53
2023/11/14 00:44:22;;;;;;;1.60;1.30;;;;;;;20.30;53.96;97173.43;104718;1268;75079;-53
2023/11/14 00:46:50;;;;;;;1.80;1.60;;;;;;;20.30;53.98;97166.21;104541;1273;64762;-53
2023/11/14 00:49:17;;;;;;;1.90;1.60;;;;;;;20.30;53.95;97163.96;104665;1267;72664;-54
2023/11/14 00:51:45;;;;;;;1.50;1.40;;;;;;;20.29;53.92;97158.52;104693;1272;61510;-54
2023/11/14 00:54:13;;;;;;;2.60;1.60;;;;;;;20.29;53.91;97157.90;104472;1267;61947;-54
2023/11/14 00:56:40;;;;;;;2.50;1.60;;;;;;;20.29;53.88;97150.44;104741;1268;75590;-54
2023/11/14 00:59:08;;;;;;;1.70;1.50;;;;;;;20.29;53.93;97143.83;104734;1273;64764;-54
2023/11/14 01:01:36;;;;;;;2.00;1.70;;;;;;;20.28;53.83;97139.46;104586;1273;71470;-54
2023/11/14 01:04:03;;;;;;;2.00;1.60;;;;;;;20.28;53.98;97127.03;104500;1273;61805;-52
2023/11/14 01:06:31;;;;;;;2.40;1.60;;;;;;;20.28;53.92;97119.27;104562;1272;61327;-52
2023/11/14 01:09:00;;;;;;;1.70;1.50;;;;;;;20.28;53.89;97123.08;104563;1267;74706;-53
2023/11/14 01:11:28;;;;;;;1.50;1.40;;;;;;;20.28;53.81;97121.76;104682;1267;65573;-53
2023/11/14 01:13:55;;;;;;;2.20;1.60;;;;;;;20.27;53.88;97123.23;104696;1268;71487;-53
2023/11/14 01:16:23;;;;;;;1.70;1.50;;;;;;;20.27;53.88;97124.39;104543;1273;61145;-53
2023/11/14 01:18:51;;;;;;;2.10;1.40;;;;;;;20.27;53.85;97122.30;104544;1267;61242;-53
2023/11/14 01:21:19;;;;;;;2.30;1.60;;;;;;;20.27;53.94;97112.58;104717;1268;74638;-52
2023/11/14 01:23:46;;;;;;;2.10;1.70;;;;;;;20.26;53.78;97105.82;104576;1273;64358;-54
2023/11/14 01:26:14;;;;;;;1.90;1.70;;;;;;;20.26;53.90;97114.44;104623;1268;72677;-53
2023/11/14 01:28:42;;;;;;;1.80;1.60;;;;;;;20.26;53.87;97116.07;104729;1272;61286;-53
2023/11/14 01:31:22;;;;;;;1.50;1.40;;;;;;;20.26;53.85;97103.41;104814;1267;61373;-53
2023/11/14 01:33:49;;;;;;;1.70;1.50;;;;;;;20.25;53.82;97096.80;104674;1267;74554;-52
2023/11/14 01:36:17;;;;;;;1.70;1.40;;;;;;;20.25;53.77;97096.48;104557;1272;65253;-53
2023/11/14 01:38:44;;;;;;;1.70;1.50;;;;;;;20.25;53.77;97095.86;104564;1267;72821;-53
2023/11/14 01:41:12;;;;;;;2.30;1.70;;;;;;;20.25;53.82;97102.31;104573;1273;61308;-53
2023/11/14 01:43:46;;;;;;;1.90;1.60;;;;;;;20.25;53.79;97093.14;104596;1267;61359;-53
2023/11/14 01:46:18;;;;;;;2.40;1.80;;;;;;;20.25;53.77;97078.46;104802;1273;74690;-53
2023/11/14 01:48:47;;;;;;;1.70;1.60;;;;;;;20.25;53.76;97066.03;104624;1273;64307;-53
2023/11/14 01:51:18;;;;;;;1.70;1.60;;;;;;;20.24;53.84;97059.65;104612;1268;72697;-53
2023/11/14 01:53:46;;;;;;;1.70;1.60;;;;;;;20.24;53.79;97057.55;104665;1272;61297;-53
2023/11/14 01:56:14;;;;;;;2.10;1.80;;;;;;;20.24;53.72;97050.64;104731;1272;61199;-53
2023/11/14 01:58:41;;;;;;;2.20;1.60;;;;;;;20.24;53.78;97049.86;104695;1267;74618;-53
2023/11/14 02:01:12;;;;;;;2.40;1.90;;;;;;;20.24;53.72;97038.44;104739;1267;64431;-52
2023/11/14 02:03:40;;;;;;;1.70;1.60;;;;;;;20.23;53.87;97022.58;104536;1267;72625;-55
2023/11/14 02:06:09;;;;;;;1.90;1.70;;;;;;;20.23;53.76;97010.30;104634;1272;61250;-53
2023/11/14 02:08:38;;;;;;;2.30;1.60;;;;;;;20.24;53.79;97000.60;104615;1273;61253;-54
2023/11/14 02:11:06;;;;;;;2.00;1.50;;;;;;;20.24;53.75;96994.31;104543;1268;74678;-53
2023/11/14 02:13:34;;;;;;;1.70;1.60;;;;;;;20.24;53.70;96998.11;104632;1271;65005;-53
2023/11/14 02:16:01;;;;;;;2.20;1.60;;;;;;;20.23;53.86;96993.30;104660;1267;72438;-54
2023/11/14 02:18:29;;;;;;;1.70;1.60;;;;;;;20.23;53.74;96985.45;104636;1272;61314;-53
2023/11/14 02:20:56;;;;;;;2.10;1.80;;;;;;;20.23;53.69;96974.34;104517;1267;61291;-52
2023/11/14 02:23:25;;;;;;;4.60;1.80;;;;;;;20.23;53.66;96972.39;104736;1267;74738;-52
2023/11/14 02:25:56;;;;;;;2.20;1.60;;;;;;;20.23;53.69;96971.02;104630;1273;64308;-53
2023/11/14 02:28:24;;;;;;;1.90;1.70;;;;;;;20.23;53.72;96973.10;104491;1273;71451;-53
2023/11/14 02:30:53;;;;;;;1.70;1.60;;;;;;;20.23;53.63;96975.90;104503;1271;61255;-52
2023/11/14 02:33:21;;;;;;;1.70;1.40;;;;;;;20.22;53.61;96976.58;104717;1273;61192;-53
2023/11/14 02:35:48;;;;;;;1.80;1.60;;;;;;;20.22;53.70;96988.88;104764;1267;75232;-52
2023/11/14 02:38:15;;;;;;;2.40;1.80;;;;;;;20.22;53.63;96986.60;104791;1273;65325;-53
2023/11/14 02:40:51;;;;;;;2.00;1.70;;;;;;;20.21;53.69;96977.81;104590;1268;72606;-54
2023/11/14 02:43:19;;;;;;;2.10;1.70;;;;;;;20.21;53.57;96967.61;104628;1267;61393;-53
2023/11/14 02:45:46;;;;;;;2.70;1.60;;;;;;;20.21;53.66;96958.21;104578;1267;61511;-53
2023/11/14 02:48:14;;;;;;;2.90;2.00;;;;;;;20.21;53.74;96952.23;104547;1272;74633;-53
2023/11/14 02:50:56;;;;;;;1.80;1.60;;;;;;;20.21;53.54;96943.30;104687;1266;65422;-53
2023/11/14 02:53:23;;;;;;;3.50;1.90;;;;;;;20.21;53.75;96938.64;104563;1268;72812;-52
2023/11/14 02:55:51;;;;;;;2.20;2.00;;;;;;;20.20;53.67;96927.07;104508;1271;61351;-53
2023/11/14 02:58:22;;;;;;;2.70;1.70;;;;;;;20.19;53.66;96927.14;104500;1267;61231;-53
2023/11/14 03:00:49;;;;;;;1.80;1.60;;;;;;;20.19;53.67;96928.08;104777;1268;74659;-52
2023/11/14 03:03:17;;;;;;;1.90;1.70;;;;;;;20.20;53.63;96923.42;104788;1273;64126;-52
2023/11/14 03:05:45;;;;;;;3.30;2.00;;;;;;;20.20;53.60;96921.48;104633;1272;72325;-52
2023/11/14 03:08:13;;;;;;;1.90;1.70;;;;;;;20.19;53.56;96924.50;104677;1272;61283;-53
2023/11/14 03:10:42;;;;;;;2.00;1.80;;;;;;;20.19;53.72;96926.60;104738;1267;61299;-53
2023/11/14 03:13:10;;;;;;;2.20;1.80;;;;;;;20.19;53.63;96927.38;104754;1272;74697;-53
2023/11/14 03:15:38;;;;;;;2.00;1.80;;;;;;;20.19;53.69;96929.32;104864;1272;66278;-54
2023/11/14 03:18:06;;;;;;;2.40;1.90;;;;;;;20.19;53.59;96921.86;104574;1267;72719;-54
2023/11/14 03:20:33;;;;;;;2.80;1.90;;;;;;;20.19;53.60;96916.58;104940;1268;61352;-54
2023/11/14 03:23:02;;;;;;;2.40;1.60;;;;;;;20.19;53.63;96916.66;104811;1267;61334;-53
2023/11/14 03:25:31;;;;;;;2.00;1.70;;;;;;;20.19;53.72;96913.08;105035;1267;74351;-54
2023/11/14 03:27:59;;;;;;;2.00;1.80;;;;;;;20.18;53.49;96916.19;104567;1272;64516;-52
2023/11/14 03:30:27;;;;;;;2.20;1.80;;;;;;;20.19;53.63;96913.53;105080;1267;71966;-53
2023/11/14 03:32:56;;;;;;;1.90;1.70;;;;;;;20.19;53.39;96912.84;104654;1273;61265;-53
2023/11/14 03:35:23;;;;;;;1.80;1.70;;;;;;;20.19;53.49;96933.11;105122;1272;61163;-53
2023/11/14 03:37:51;;;;;;;2.60;1.70;;;;;;;20.19;53.57;96939.73;104599;1268;74686;-52
2023/11/14 03:40:18;;;;;;;4.50;1.90;;;;;;;20.19;53.60;96940.66;104729;1271;65361;-52
2023/11/14 03:42:46;;;;;;;2.10;1.80;;;;;;;20.19;53.49;96944.08;104723;1268;72661;-52
2023/11/14 03:45:13;;;;;;;2.30;1.90;;;;;;;20.19;53.53;96945.86;104537;1272;61278;-53
2023/11/14 03:47:42;;;;;;;2.10;1.80;;;;;;;20.19;53.55;96943.29;104665;1268;61295;-52
2023/11/14 03:50:10;;;;;;;1.80;1.60;;;;;;;20.19;53.50;96940.48;104754;1273;74632;-52
2023/11/14 03:52:37;;;;;;;1.90;1.80;;;;;;;20.19;53.58;96926.98;104548;1272;64276;-52
2023/11/14 03:55:05;;;;;;;2.80;1.80;;;;;;;20.19;53.62;96921.86;104709;1268;72611;-52
2023/11/14 03:57:33;;;;;;;2.10;1.80;;;;;;;20.18;53.53;96921.16;104817;1268;61246;-52
2023/11/14 04:00:01;;;;;;;3.00;1.80;;;;;;;20.18;53.41;96909.20;104675;1273;61256;-52
2023/11/14 04:02:38;;;;;;;2.40;1.80;;;;;;;20.18;53.48;96898.48;104775;1268;74436;-52
2023/11/14 04:05:06;;;;;;;2.60;1.70;;;;;;;20.19;53.45;96898.77;104673;1271;63957;-52
2023/11/14 04:07:34;;;;;;;2.10;1.90;;;;;;;20.18;53.47;96907.19;104805;1268;72373;-52
2023/11/14 04:10:01;;;;;;;6.00;1.90;;;;;;;20.17;53.48;96896.52;104623;1273;61383;-52
2023/11/14 04:12:29;;;;;;;3.20;2.00;;;;;;;20.17;53.50;96889.68;104569;1268;61382;-52
2023/11/14 04:14:56;;;;;;;3.10;1.70;;;;;;;20.18;53.44;96891.56;104612;1272;74348;-52
2023/11/14 04:17:23;;;;;;;5.20;1.90;;;;;;;20.17;53.40;96885.11;104479;1273;64028;-52
2023/11/14 04:19:51;;;;;;;2.00;1.80;;;;;;;20.17;53.47;96877.27;104487;1267;72636;-52
2023/11/14 04:22:19;;;;;;;4.20;1.80;;;;;;;20.17;53.30;96862.73;104481;1273;61257;-52
2023/11/14 04:24:46;;;;;;;2.30;1.70;;;;;;;20.17;53.40;96856.98;104619;1268;61308;-52
2023/11/14 04:27:13;;;;;;;2.10;1.70;;;;;;;20.17;53.44;96851.55;104488;1267;74735;-52
2023/11/14 04:29:41;;;;;;;3.30;2.10;;;;;;;20.17;53.43;96847.27;104495;1272;64240;-53
2023/11/14 04:32:08;;;;;;;2.70;2.00;;;;;;;20.16;53.44;96842.61;104516;1268;72351;-53
2023/11/14 04:34:36;;;;;;;2.40;1.80;;;;;;;20.16;53.40;96854.11;104476;1273;61384;-52
2023/11/14 04:37:03;;;;;;;2.50;1.90;;;;;;;20.16;53.51;96853.72;104493;1268;61434;-52
2023/11/14 04:39:30;;;;;;;3.10;1.90;;;;;;;20.16;53.40;96861.55;104425;1273;74481;-52
2023/11/14 04:41:58;;;;;;;2.10;1.90;;;;;;;20.16;53.46;96880.98;104537;1273;64255;-52
2023/11/14 04:44:26;;;;;;;3.30;1.70;;;;;;;20.15;53.45;96886.64;104645;1268;72656;-52
2023/11/14 04:46:53;;;;;;;3.70;2.30;;;;;;;20.16;53.44;96889.67;104741;1273;61414;-52
2023/11/14 04:49:20;;;;;;;2.40;1.80;;;;;;;20.15;53.35;96894.27;104551;1268;61385;-53
2023/11/14 04:51:48;;;;;;;2.60;2.00;;;;;;;20.15;53.37;96891.54;104731;1268;74780;-51
2023/11/14 04:54:15;;;;;;;2.50;1.80;;;;;;;20.15;53.39;96887.89;104487;1273;65050;-55
2023/11/14 04:56:42;;;;;;;2.40;2.20;;;;;;;20.15;53.48;96884.93;104616;1268;72459;-53
2023/11/14 04:59:09;;;;;;;2.40;1.90;;;;;;;20.15;53.36;96887.95;104717;1273;61345;-52
2023/11/14 05:01:37;;;;;;;3.70;1.80;;;;;;;20.14;53.36;96884.06;104724;1267;61732;-52
2023/11/14 05:04:04;;;;;;;2.80;1.90;;;;;;;20.14;53.34;96873.73;104703;1273;74585;-52
2023/11/14 05:06:32;;;;;;;2.90;1.70;;;;;;;20.14;53.41;96860.38;104711;1273;64280;-52
2023/11/14 05:08:59;;;;;;;2.50;1.90;;;;;;;20.14;53.43;96840.89;104683;1268;72686;-52
2023/11/14 05:11:27;;;;;;;4.20;1.90;;;;;;;20.14;53.43;96842.36;104669;1272;61388;-53
2023/11/14 05:13:54;;;;;;;3.90;2.20;;;;;;;20.14;53.35;96834.90;104457;1268;61478;-52
2023/11/14 05:16:21;;;;;;;2.00;1.80;;;;;;;20.14;53.52;96790.73;104520;1268;73545;-53
2023/11/14 05:18:51;;;;;;;2.40;2.00;;;;;;;20.14;53.38;96758.09;104710;1273;66155;-52
2023/11/14 05:21:18;;;;;;;2.70;2.30;;;;;;;20.13;52.93;96731.46;104770;1272;72463;-52
2023/11/14 05:23:46;;;;;;;5.30;2.90;;;;;;;20.12;52.59;96715.54;104779;1273;61386;-53
2023/11/14 05:26:13;;;;;;;4.50;2.70;;;;;;;20.11;52.49;96713.98;104676;1272;61336;-53
2023/11/14 05:28:40;;;;;;;3.30;2.80;;;;;;;20.10;52.45;96721.98;104503;1273;74690;-52
2023/11/14 05:31:08;;;;;;;4.60;3.00;;;;;;;20.09;52.28;96725.61;104470;1272;64284;-52
2023/11/14 05:33:36;;;;;;;3.10;2.60;;;;;;;20.07;52.13;96743.23;104545;1268;72472;-52
2023/11/14 05:36:04;;;;;;;3.90;2.60;;;;;;;20.05;51.98;96753.86;104664;1272;61392;-53
2023/11/14 05:38:31;;;;;;;4.00;2.90;;;;;;;20.02;51.96;96753.38;104648;1268;61341;-52
2023/11/14 05:40:59;;;;;;;3.90;2.80;;;;;;;20.00;51.78;96757.65;104595;1268;74676;-52
2023/11/14 05:43:28;;;;;;;3.00;2.50;;;;;;;19.98;51.63;96746.29;104697;1271;64042;-52
2023/11/14 05:45:55;;;;;;;3.90;2.90;;;;;;;19.96;51.76;96713.84;104542;1267;72611;-52
2023/11/14 05:48:23;;;;;;;4.20;3.20;;;;;;;19.94;51.60;96704.66;104658;1273;61269;-52
2023/11/14 05:50:50;;;;;;;3.60;2.80;;;;;;;19.93;51.60;96697.12;104659;1267;61301;-53
2023/11/14 05:53:18;;;;;;;3.40;2.70;;;;;;;19.91;51.53;96692.15;104494;1273;75163;-53
2023/11/14 05:55:45;;;;;;;4.40;2.80;;;;;;;19.90;51.61;96693.77;104623;1273;65363;-52
2023/11/14 05:58:13;;;;;;;3.40;3.10;;;;;;;19.89;51.67;96691.73;104516;1268;72691;-53
2023/11/14 06:00:40;;;;;;;4.90;2.90;;;;;;;19.88;51.61;96702.63;104580;1273;61247;-53
2023/11/14 06:03:08;;;;;;;3.50;2.90;;;;;;;19.87;51.64;96715.33;104660;1268;61297;-51
2023/11/14 06:05:35;;;;;;;6.30;3.00;;;;;;;19.86;51.61;96721.92;104582;1273;73618;-53
2023/11/14 06:08:03;;;;;;;6.30;3.20;;;;;;;19.85;51.71;96719.60;104734;1272;65307;-52
2023/11/14 06:10:31;;;;;;;5.10;2.70;;;;;;;19.84;51.70;96709.26;105098;1270;72720;-52
2023/11/14 06:12:58;;;;;;;3.30;2.80;;;;;;;19.83;51.67;96719.75;104664;1272;61269;-52
2023/11/14 06:15:26;;;;;;;3.70;3.00;;;;;;;19.83;51.79;96718.96;105005;1273;61268;-53
2023/11/14 06:17:54;;;;;;;5.40;2.80;;;;;;;19.82;51.88;96706.54;104616;1268;73343;-54
2023/11/14 06:20:22;;;;;;;3.40;3.00;;;;;;;19.82;52.00;96692.41;105088;1273;64272;-53
2023/11/14 06:22:50;;;;;;;5.30;3.10;;;;;;;19.83;52.07;96687.60;104648;1273;72585;-51
2023/11/14 06:25:18;;;;;;;4.00;2.70;;;;;;;19.84;52.11;96685.82;105210;1273;61236;-52
2023/11/14 06:27:46;;;;;;;3.40;2.80;;;;;;;19.84;52.23;96682.33;104526;1268;61389;-60
2023/11/14 06:30:13;;;;;;;3.00;2.60;;;;;;;19.84;52.21;96668.98;104536;1269;74600;-57
2023/11/14 06:32:42;;;;;;;3.80;3.10;;;;;;;19.85;52.36;96662.86;104608;1274;66327;-54
2023/11/14 06:35:09;;;;;;;3.90;2.80;;;;;;;19.86;52.52;96662.77;104565;1273;72610;-50
2023/11/14 06:37:37;;;;;;;4.10;2.90;;;;;;;19.87;52.71;96655.80;104512;1274;61237;-59
2023/11/14 06:40:05;;;;;;;4.80;2.80;;;;;;;19.88;52.80;96663.64;104567;1272;61495;-60
2023/11/14 06:42:33;;;;;;;6.20;2.80;;;;;;;19.90;53.01;96661.95;104706;1272;74589;-57
2023/11/14 06:45:01;;;;;;;4.10;2.90;;;;;;;19.92;53.09;96663.34;104582;1272;65266;-55
2023/11/14 06:47:28;;;;;;;4.20;2.80;;;;;;;19.93;53.14;96661.25;104563;1268;72665;-49
2023/11/14 06:49:56;;;;;;;4.50;2.60;;;;;;;19.94;53.20;96664.29;104404;1273;61365;-48
2023/11/14 06:52:24;;;;;;;3.50;2.70;;;;;;;19.95;53.36;96667.23;104675;1268;61354;-51
2023/11/14 06:54:51;;;;;;;3.60;2.90;;;;;;;19.97;53.33;96660.66;104553;1273;75188;-51
2023/11/14 06:57:20;;;;;;;3.40;2.40;;;;;;;19.98;53.53;96657.54;108336;1267;65052;-52
2023/11/14 06:59:48;;;;;;;4.60;2.40;;;;;;;19.99;53.61;96657.94;105057;1268;72723;-53
2023/11/14 07:02:16;;;;;;;4.70;2.50;;;;;;;20.00;53.60;96654.36;104731;1273;61468;-48
2023/11/14 07:04:44;;;;;;;3.20;2.60;;;;;;;20.02;53.49;96650.35;104695;1268;61263;-50
2023/11/14 07:07:12;;;;;;;3.80;2.70;;;;;;;20.04;53.51;96650.44;104627;1274;73822;-55
2023/11/14 07:09:39;;;;;;;2.90;2.50;;;;;;;20.05;53.37;96651.83;104626;1273;64980;-52
2023/11/14 07:12:09;;;;;;;5.10;2.50;;;;;;;20.05;53.48;96656.64;104575;1273;72654;-54
2023/11/14 07:14:36;;;;;;;3.10;2.40;;;;;;;20.06;53.39;96659.44;104548;1270;61433;-52
2023/11/14 07:17:04;;;;;;;4.90;2.90;;;;;;;20.07;53.44;96663.23;104664;1272;61287;-52
2023/11/14 07:19:37;;;;;;;4.50;2.70;;;;;;;20.07;53.45;96667.13;104548;1268;75011;-48
2023/11/14 07:22:04;;;;;;;5.00;2.40;;;;;;;20.08;53.48;96663.64;104673;1273;65564;-49
2023/11/14 07:24:32;;;;;;;3.00;2.30;;;;;;;20.09;53.63;96664.73;104582;1273;73199;-47
2023/11/14 07:26:59;;;;;;;4.10;2.70;;;;;;;20.09;53.99;96665.11;104381;1275;61252;-61
2023/11/14 07:29:26;;;;;;;5.00;2.40;;;;;;;20.11;54.28;96673.29;104527;1273;61365;-61
2023/11/14 07:31:54;;;;;;;6.00;2.50;;;;;;;20.13;54.40;96665.29;104624;1267;75249;-55
2023/11/14 07:34:22;;;;;;;7.40;2.80;;;;;;;20.14;54.40;96664.98;104455;1273;65274;-55
2023/11/14 07:36:50;;;;;;;4.60;2.60;;;;;;;20.15;54.47;96662.11;104698;1267;72713;-59
2023/11/14 07:39:17;;;;;;;5.80;2.70;;;;;;;20.16;54.75;96664.91;104660;1273;61389;-54
2023/11/14 07:41:44;;;;;;;4.90;2.80;;;;;;;20.17;54.92;96664.98;104507;1273;61281;-55
2023/11/14 07:44:13;;;;;;;5.20;2.50;;;;;;;20.18;54.99;96665.39;104459;1268;74718;-54
2023/11/14 07:46:42;;;;;;;5.60;2.80;;;;;;;20.19;55.00;96670.83;104342;1272;64327;-54
2023/11/14 07:49:11;;;;;;;3.80;2.70;;;;;;;20.20;55.02;96670.52;104343;1268;73515;-55
2023/11/14 07:51:38;;;;;;;5.80;2.70;;;;;;;20.21;54.98;96666.41;108367;1267;59071;-50
2023/11/14 07:54:05;;;;;;;7.30;3.00;;;;;;;20.22;55.00;96668.05;108390;1267;59130;-54
2023/11/14 07:56:33;;;;;;;4.20;3.10;;;;;;;20.24;55.07;96667.99;108379;1267;74528;-54
2023/11/14 07:59:00;;;;;;;5.10;2.70;;;;;;;20.25;55.07;96663.95;106072;1272;65438;-51
2023/11/14 08:01:28;;;;;;;5.70;3.00;;;;;;;20.27;55.31;96662.96;104524;1267;72532;-49
2023/11/14 08:03:56;;;;;;;3.90;2.90;;;;;;;20.29;55.28;96669.02;104451;1274;61328;-49
2023/11/14 08:06:25;;;;;;;3.50;2.50;;;;;;;20.31;55.15;96667.70;104500;1267;61333;-49
2023/11/14 08:08:53;;;;;;;3.90;2.80;;;;;;;20.32;55.24;96668.58;104432;1267;73144;-49
2023/11/14 08:11:20;;;;;;;5.20;2.80;;;;;;;20.33;55.18;96667.86;104447;1272;66548;-50
2023/11/14 08:13:48;;;;;;;6.60;2.80;;;;;;;20.34;55.25;96678.20;104618;1272;72471;-49
2023/11/14 08:16:15;;;;;;;4.90;2.60;;;;;;;20.35;55.08;96674.85;104459;1273;61409;-51
2023/11/14 08:18:43;;;;;;;4.10;2.90;;;;;;;20.36;55.21;96672.92;104529;1268;62123;-48
2023/11/14 09:44:12;;;;;;;4.60;2.60;;;;;;;20.36;56.24;96666.08;103463;1283;74079;-49
2023/11/14 09:46:39;;;;;;;6.80;2.90;;;;;;;20.37;56.19;96664.77;104857;1268;60405;-48
2023/11/14 09:49:07;;;;;;;3.80;2.80;;;;;;;20.37;56.08;96661.59;104835;1269;60051;-52
2023/11/14 09:51:35;;;;;;;7.50;2.80;;;;;;;20.38;56.35;96663.21;104729;1267;72791;-52
2023/11/14 09:54:02;;;;;;;7.00;2.70;;;;;;;20.38;56.41;96660.89;104901;1269;65198;-50
2023/11/14 09:56:30;;;;;;;5.30;2.90;;;;;;;20.39;56.31;96656.38;104908;1265;72341;-50
2023/11/14 09:58:57;;;;;;;6.50;2.90;;;;;;;20.40;56.31;96661.90;104909;1269;59825;-53
2023/11/14 10:01:24;;;;;;;5.80;3.10;;;;;;;20.41;56.56;96664.16;104778;1263;59759;-48
2023/11/14 10:03:51;;;;;;;5.40;2.90;;;;;;;20.42;56.62;96667.49;104827;1265;72794;-50
2023/11/14 10:06:18;;;;;;;11.00;3.20;;;;;;;20.43;56.82;96659.64;105042;1269;66245;-49
2023/11/14 10:08:47;;;;;;;8.70;3.00;;;;;;;20.45;57.07;96658.49;104836;1269;72563;-54
2023/11/14 10:11:24;;;;;;;5.10;2.50;;;;;;;20.47;57.04;96656.48;104739;1269;59797;-51
2023/11/14 10:13:51;;;;;;;7.70;3.00;;;;;;;20.48;57.31;96661.37;104729;1269;60093;-51
2023/11/14 10:16:21;;;;;;;7.40;3.00;;;;;;;20.50;57.48;96664.40;104567;1272;73506;-48
2023/11/14 10:18:49;;;;;;;5.80;2.80;;;;;;;20.51;57.50;96665.41;104838;1268;65438;-51
2023/11/14 10:21:27;;;;;;;6.30;2.70;;;;;;;20.53;57.66;96662.15;104962;1267;72288;-47
2023/11/14 10:23:57;;;;;;;5.00;2.80;;;;;;;20.55;57.68;96658.42;104923;1269;59633;-51
2023/11/14 10:26:24;;;;;;;5.50;2.70;;;;;;;20.57;57.64;96656.34;104910;1267;60118;-50
2023/11/14 10:28:56;;;;;;;6.00;2.80;;;;;;;20.58;57.60;96646.54;105048;1268;72942;-51
2023/11/14 10:31:39;;;;;;;6.00;2.50;;;;;;;20.60;57.46;96651.90;104873;1269;65311;-47
2023/11/14 10:34:08;;;;;;;6.30;2.90;;;;;;;20.62;57.63;96650.66;104830;1267;71714;-48
2023/11/14 10:36:48;;;;;;;7.00;2.90;;;;;;;20.64;57.70;96658.13;104898;1264;59743;-47
2023/11/14 10:39:15;;;;;;;4.80;2.90;;;;;;;20.68;58.08;96659.00;104823;1264;59608;-48
2023/11/14 10:41:42;;;;;;;5.20;3.20;;;;;;;20.71;58.61;96657.90;105051;1264;73691;-46
2023/11/14 10:44:10;;;;;;;6.90;2.90;;;;;;;20.76;58.78;96658.07;104928;1269;65893;-46
2023/11/14 10:46:37;;;;;;;7.20;3.00;;;;;;;20.81;58.85;96659.23;104980;1264;72667;-47
2023/11/14 10:49:08;;;;;;;3.80;2.50;;;;;;;20.85;58.78;96656.51;104749;1271;59778;-52
2023/11/14 10:51:36;;;;;;;7.60;3.00;;;;;;;20.89;58.89;96660.33;104781;1269;59638;-47
2023/11/14 10:54:06;;;;;;;6.80;2.70;;;;;;;20.93;58.85;96663.59;105131;1265;73328;-49
2023/11/14 10:56:37;;;;;;;9.70;2.80;;;;;;;20.96;58.73;96670.20;104869;1269;66176;-47
2023/11/14 10:59:15;;;;;;;3.70;2.80;;;;;;;20.98;58.72;96665.14;104705;1264;73624;-51
2023/11/14 11:01:46;;;;;;;7.10;2.70;;;;;;;21.01;58.61;96666.54;104909;1268;59950;-47
2023/11/14 11:04:14;;;;;;;4.50;2.60;;;;;;;21.03;58.79;96662.64;105072;1267;60176;-47
2023/11/14 11:06:40;;;;;;;5.80;2.60;;;;;;;21.06;58.74;96666.11;104999;1268;72701;-49
2023/11/14 11:09:10;;;;;;;2.70;2.30;;;;;;;21.08;58.67;96665.87;104877;1266;66118;-49
2023/11/14 11:11:40;;;;;;;5.10;2.70;;;;;;;21.11;58.67;96665.95;104879;1269;73380;-49
2023/11/14 11:14:09;;;;;;;7.00;2.50;;;;;;;21.13;58.68;96668.13;104783;1267;61174;-49
2023/11/14 11:16:46;;;;;;;4.20;2.40;;;;;;;21.15;58.66;96673.88;105378;1261;60336;-45
2023/11/14 11:19:24;;;;;;;4.00;2.50;;;;;;;21.17;58.51;96670.07;105352;1260;73919;-46
2023/11/14 11:22:06;;;;;;;9.10;2.80;;;;;;;21.19;58.44;96673.89;105953;1260;66665;-44
2023/11/14 11:24:33;;;;;;;2.90;2.40;;;;;;;21.20;58.24;96670.60;105277;1260;73420;-45
2023/11/14 11:27:22;;;;;;;3.40;2.40;;;;;;;21.22;58.38;96670.98;105290;1260;60300;-47
2023/11/14 11:30:04;;;;;;;5.40;2.60;;;;;;;21.23;58.17;96676.45;105051;1262;59989;-45
2023/11/14 11:32:37;;;;;;;3.00;2.30;;;;;;;21.25;58.12;96678.15;105766;1257;72767;-46
2023/11/14 11:35:18;;;;;;;4.20;2.50;;;;;;;21.25;57.90;96678.54;105075;1257;64521;-49
2023/11/14 11:37:56;;;;;;;3.60;2.40;;;;;;;21.27;57.86;96693.85;105226;1262;73516;-49
2023/11/14 11:40:30;;;;;;;3.90;2.30;;;;;;;21.28;57.87;96691.99;105042;1263;59852;-48
2023/11/14 11:42:58;;;;;;;3.50;2.20;;;;;;;21.29;57.80;96692.52;105296;1261;59620;-47
2023/11/14 11:45:28;;;;;;;4.40;2.40;;;;;;;21.29;57.75;96688.95;105289;1257;74417;-47
2023/11/14 11:47:57;;;;;;;2.80;2.20;;;;;;;21.31;57.65;96690.05;105612;1263;65787;-48
2023/11/14 11:50:26;;;;;;;4.20;2.40;;;;;;;21.33;57.58;96692.77;105446;1257;72596;-46
2023/11/14 11:53:08;;;;;;;5.00;2.50;;;;;;;21.36;57.29;96693.55;105511;1258;59736;-45
2023/11/14 11:55:38;;;;;;;6.90;3.20;;;;;;;21.39;57.16;96687.39;105165;1257;61049;-46
2023/11/14 11:58:07;;;;;;;7.00;2.80;;;;;;;21.42;57.16;96690.96;105332;1257;73911;-45
2023/11/14 12:00:35;;;;;;;5.10;2.50;;;;;;;21.45;57.21;96688.02;105386;1257;66417;-46
2023/11/14 12:03:03;;;;;;;3.90;2.50;;;;;;;21.46;57.23;96685.59;106319;1260;72655;-46
2023/11/14 12:05:31;;;;;;;7.30;2.80;;;;;;;21.49;57.15;96684.27;105517;1260;60099;-44
2023/11/14 12:07:59;;;;;;;4.30;2.30;;;;;;;21.51;57.20;96684.65;105338;1260;59556;-40
2023/11/14 12:10:26;;;;;;;7.80;2.60;;;;;;;21.53;57.27;96688.30;105402;1257;72822;-45
2023/11/14 12:12:54;;;;;;;4.20;2.30;;;;;;;21.55;57.20;96684.33;105462;1260;64972;-46
2023/11/14 12:15:28;;;;;;;5.40;2.30;;;;;;;21.56;57.37;96689.31;105175;1258;71426;-48
2023/11/14 12:17:55;;;;;;;4.20;2.30;;;;;;;21.59;57.38;96692.41;104714;1262;62024;-45
2023/11/14 12:20:23;;;;;;;3.80;2.10;;;;;;;21.60;57.63;96686.96;105203;1269;60118;-42
2023/11/14 12:22:52;;;;;;;7.70;2.60;;;;;;;21.63;57.67;96688.83;105547;1260;72775;-41
2023/11/14 12:25:20;;;;;;;3.60;2.10;;;;;;;21.65;57.91;96695.52;105458;1260;64994;-46
2023/11/14 12:27:56;;;;;;;4.90;2.60;;;;;;;21.68;58.17;96696.60;105388;1261;73454;-51
2023/11/14 12:30:26;;;;;;;5.50;2.30;;;;;;;21.72;58.61;96695.04;105192;1258;59620;-49
2023/11/14 12:33:10;;;;;;;5.90;2.40;;;;;;;21.75;58.98;96697.59;105197;1265;59724;-55
2023/11/14 12:35:44;;;;;;;5.60;2.20;;;;;;;21.80;59.40;96694.00;105285;1258;72765;-52
2023/11/14 12:38:11;;;;;;;3.20;2.30;;;;;;;21.84;59.67;96696.58;106703;1257;67774;-45
2023/11/14 12:40:38;;;;;;;4.60;2.30;;;;;;;21.88;59.42;96704.05;105093;1257;73481;-48
2023/11/14 12:43:08;;;;;;;4.40;2.20;;;;;;;21.90;59.44;96707.46;105320;1260;60103;-49
2023/11/14 12:45:48;;;;;;;5.90;2.00;;;;;;;21.92;59.42;96691.73;106018;1257;59650;-46
2023/11/14 12:48:17;;;;;;;2.80;2.30;;;;;;;21.95;59.11;96693.13;105346;1260;73845;-48
2023/11/14 12:50:48;;;;;;;4.40;2.00;;;;;;;21.97;59.09;96696.95;108812;1257;65362;-48
2023/11/14 12:53:15;;;;;;;3.60;2.20;;;;;;;21.98;59.04;96700.36;108389;1260;71458;-49
2023/11/14 12:55:42;;;;;;;3.00;2.00;;;;;;;21.99;58.87;96705.58;105422;1260;61004;-49